createdAt,value
2019-04-01T00:01:16.373Z,99.90
2019-04-01T00:03:45.900Z,99.90
2019-04-01T00:06:14.739Z,99.90
2019-04-01T00:08:43.587Z,99.90
2019-04-01T00:11:12.434Z,99.90
2019-04-01T00:13:41.278Z,99.90
2019-04-01T00:16:10.118Z,99.90
2019-04-01T00:18:38.959Z,99.90
2019-04-01T00:21:07.799Z,99.90
2019-04-01T00:23:36.630Z,99.90
2019-04-01T00:26:05.476Z,99.90
2019-04-01T00:28:34.307Z,99.90
2019-04-01T00:31:03.153Z,99.90
2019-04-01T00:33:31.992Z,99.90
2019-04-01T00:36:00.836Z,99.90
2019-04-01T00:38:29.681Z,99.90
2019-04-01T00:40:58.510Z,99.90
2019-04-01T00:43:27.444Z,99.90
2019-04-01T00:45:56.288Z,99.90
2019-04-01T00:48:25.129Z,99.90
2019-04-01T00:50:54.842Z,99.90
2019-04-01T00:53:23.633Z,99.90
2019-04-01T00:55:53.213Z,99.90
2019-04-01T00:58:22.053Z,99.90
2019-04-01T01:00:50.892Z,99.90
2019-04-01T01:03:19.736Z,99.90
2019-04-01T01:05:48.571Z,99.90
2019-04-01T01:08:17.412Z,99.90
2019-04-01T01:10:46.259Z,99.90
2019-04-01T01:13:15.108Z,99.90
2019-04-01T01:15:43.942Z,99.90
2019-04-01T01:18:12.786Z,99.90
2019-04-01T01:20:41.661Z,99.90
2019-04-01T01:23:10.499Z,99.90
2019-04-01T01:25:39.340Z,99.90
2019-04-01T01:28:08.174Z,99.90
2019-04-01T01:30:37.076Z,99.90
2019-04-01T01:33:05.850Z,99.90
2019-04-01T01:35:34.670Z,99.90
2019-04-01T01:38:03.513Z,99.90
2019-04-01T01:40:32.348Z,99.90
2019-04-01T01:43:01.189Z,99.90
2019-04-01T01:45:30.014Z,99.90
2019-04-01T01:47:59.600Z,99.90
2019-04-01T01:50:28.442Z,99.90
2019-04-01T01:52:57.286Z,99.90
2019-04-01T01:57:55.540Z,99.90
2019-04-01T02:00:24.379Z,99.90
2019-04-01T02:02:53.224Z,99.90
2019-04-01T02:05:22.074Z,99.90
2019-04-01T02:07:50.900Z,99.90
2019-04-01T02:10:19.730Z,99.90
2019-04-01T02:12:48.655Z,99.90
2019-04-01T02:15:17.418Z,99.90
2019-04-01T02:17:46.308Z,99.90
2019-04-01T02:20:15.098Z,99.90
2019-04-01T02:22:43.935Z,99.90
2019-04-01T02:25:12.768Z,99.90
2019-04-01T02:27:42.344Z,99.90
2019-04-01T02:30:11.180Z,99.90
2019-04-01T02:32:40.024Z,99.90
2019-04-01T02:35:08.858Z,99.90
2019-04-01T02:37:37.700Z,99.90
2019-04-01T02:40:06.546Z,99.90
2019-04-01T02:42:35.396Z,99.90
2019-04-01T02:45:04.235Z,99.90
2019-04-01T02:47:33.075Z,99.90
2019-04-01T02:50:02.671Z,99.90
2019-04-01T02:52:31.506Z,99.90
2019-04-01T02:55:00.611Z,99.90
2019-04-01T02:57:29.935Z,99.90
2019-04-01T02:59:58.772Z,99.90
2019-04-01T03:02:27.619Z,99.90
2019-04-01T03:04:56.442Z,99.90
2019-04-01T03:07:26.056Z,99.90
2019-04-01T03:09:54.925Z,99.90
2019-04-01T03:12:23.740Z,99.90
2019-04-01T03:14:52.572Z,99.90
2019-04-01T03:17:21.406Z,99.90
2019-04-01T03:19:50.988Z,99.90
2019-04-01T03:22:19.825Z,99.90
2019-04-01T03:24:48.665Z,99.90
2019-04-01T03:27:17.791Z,99.90
2019-04-01T03:29:46.387Z,99.90
2019-04-01T03:32:15.201Z,99.90
2019-04-01T03:34:44.033Z,99.90
2019-04-01T03:37:13.641Z,99.90
2019-04-01T03:39:43.217Z,99.90
2019-04-01T03:42:12.116Z,99.90
2019-04-01T03:44:40.925Z,99.90
2019-04-01T03:47:09.759Z,99.90
2019-04-01T03:49:38.596Z,99.90
2019-04-01T03:52:10.267Z,99.90
2019-04-01T03:54:36.283Z,99.90
2019-04-01T03:57:05.148Z,99.90
2019-04-01T03:59:33.982Z,99.90
2019-04-01T04:02:02.862Z,99.90
2019-04-01T04:07:01.116Z,99.90
2019-04-01T04:09:29.953Z,99.90
2019-04-01T04:11:58.802Z,99.90
2019-04-01T04:14:27.657Z,99.90
2019-04-01T04:16:56.495Z,99.90
2019-04-01T04:19:25.340Z,99.90
2019-04-01T04:21:54.239Z,99.90
2019-04-01T04:24:23.759Z,99.90
2019-04-01T04:26:52.595Z,99.90
2019-04-01T04:29:21.433Z,99.90
2019-04-01T04:31:50.270Z,99.90
2019-04-01T04:34:19.115Z,99.90
2019-04-01T04:36:47.961Z,99.90
2019-04-01T04:39:16.815Z,99.90
2019-04-01T04:41:45.636Z,99.90
2019-04-01T04:44:14.495Z,99.90
2019-04-01T04:46:43.332Z,99.90
2019-04-01T04:49:12.163Z,99.90
2019-04-01T04:51:41.741Z,99.90
2019-04-01T04:54:10.590Z,99.90
2019-04-01T04:56:39.436Z,99.90
2019-04-01T04:59:08.285Z,99.90
2019-04-01T05:01:37.126Z,99.90
2019-04-01T05:04:05.954Z,99.90
2019-04-01T05:06:34.795Z,99.90
2019-04-01T05:09:03.625Z,99.90
2019-04-01T05:11:32.464Z,99.90
2019-04-01T05:14:01.329Z,99.90
2019-04-01T05:16:30.164Z,99.90
2019-04-01T05:18:59.776Z,99.90
2019-04-01T05:21:28.676Z,99.90
2019-04-01T05:23:58.271Z,99.90
2019-04-01T05:26:27.857Z,99.90
2019-04-01T05:28:56.750Z,99.90
2019-04-01T05:31:25.595Z,99.90
2019-04-01T05:33:55.994Z,99.90
2019-04-01T05:36:23.990Z,99.90
2019-04-01T05:38:52.853Z,99.90
2019-04-01T05:41:22.458Z,99.90
2019-04-01T05:43:51.314Z,99.90
2019-04-01T05:46:20.144Z,99.90
2019-04-01T05:48:48.978Z,99.90
2019-04-01T05:51:17.808Z,99.90
2019-04-01T05:53:46.662Z,99.90
2019-04-01T05:56:15.520Z,99.90
2019-04-01T05:58:44.380Z,99.90
2019-04-01T06:01:13.249Z,99.90
2019-04-01T06:03:42.049Z,99.90
2019-04-01T06:06:11.643Z,99.90
2019-04-01T06:08:40.495Z,99.90
2019-04-01T06:11:09.334Z,99.90
2019-04-01T06:13:38.192Z,99.90
2019-04-01T06:16:07.080Z,99.90
2019-04-01T06:18:35.880Z,99.90
2019-04-01T06:21:04.717Z,99.90
2019-04-01T06:23:33.567Z,99.90
2019-04-01T06:26:02.414Z,99.90
2019-04-01T06:28:31.243Z,99.90
2019-04-01T06:31:00.084Z,99.90
2019-04-01T06:33:28.938Z,99.90
2019-04-01T06:35:57.773Z,99.90
2019-04-01T06:38:26.617Z,99.90
2019-04-01T06:40:56.214Z,99.90
2019-04-01T06:43:25.069Z,99.90
2019-04-01T06:45:53.914Z,99.90
2019-04-01T06:48:22.757Z,99.90
2019-04-01T06:50:51.608Z,99.90
2019-04-01T06:53:20.447Z,99.90
2019-04-01T06:55:49.281Z,99.90
2019-04-01T06:58:18.145Z,99.90
2019-04-01T07:00:47.728Z,99.90
2019-04-01T07:05:45.981Z,99.90
2019-04-01T07:08:14.822Z,99.90
2019-04-01T07:10:43.734Z,99.90
2019-04-01T07:13:12.545Z,99.90
2019-04-01T07:15:41.381Z,99.90
2019-04-01T07:18:10.225Z,99.90
2019-04-01T07:20:39.057Z,99.90
2019-04-01T07:23:07.887Z,99.90
2019-04-01T07:25:36.775Z,99.90
2019-04-01T07:28:05.586Z,99.90
2019-04-01T07:30:34.491Z,99.90
2019-04-01T07:33:03.354Z,99.90
2019-04-01T07:35:32.186Z,99.90
2019-04-01T07:38:01.047Z,99.90
2019-04-01T07:40:29.889Z,99.90
2019-04-01T07:42:59.483Z,99.90
2019-04-01T07:45:28.318Z,99.90
2019-04-01T07:47:57.164Z,99.90
2019-04-01T07:50:26.005Z,99.90
2019-04-01T07:52:55.560Z,99.90
2019-04-01T07:55:23.690Z,99.90
2019-04-01T07:57:52.528Z,99.90
2019-04-01T08:00:21.462Z,99.90
2019-04-01T08:02:50.220Z,99.90
2019-04-01T08:05:19.065Z,99.90
2019-04-01T08:07:47.929Z,99.90
2019-04-01T08:10:16.777Z,99.90
2019-04-01T08:12:45.640Z,99.90
2019-04-01T08:15:14.474Z,99.90
2019-04-01T08:17:43.326Z,99.90
2019-04-01T08:20:12.175Z,99.90
2019-04-01T08:22:43.292Z,99.90
2019-04-01T08:25:10.616Z,99.90
2019-04-01T08:27:39.470Z,99.90
2019-04-01T08:30:08.347Z,99.90
2019-04-01T08:32:37.199Z,99.90
2019-04-01T08:35:06.133Z,99.90
2019-04-01T08:37:34.905Z,99.90
2019-04-01T08:40:03.770Z,99.90
2019-04-01T08:42:32.615Z,99.90
2019-04-01T08:45:01.454Z,99.90
2019-04-01T08:47:31.043Z,99.90
2019-04-01T08:49:59.893Z,99.90
2019-04-01T08:52:28.743Z,99.90
2019-04-01T08:54:57.606Z,99.90
2019-04-01T08:57:26.467Z,99.90
2019-04-01T08:59:56.471Z,99.90
2019-04-01T09:02:24.891Z,99.90
2019-04-01T09:04:53.749Z,99.90
2019-04-01T09:07:22.606Z,99.90
2019-04-01T09:09:51.455Z,99.90
2019-04-01T09:12:20.330Z,99.90
2019-04-01T09:14:49.164Z,99.90
2019-04-01T09:17:18.743Z,99.90
2019-04-01T09:19:47.583Z,99.90
2019-04-01T09:22:16.431Z,99.90
2019-04-01T09:24:46.031Z,99.90
2019-04-01T09:27:14.867Z,99.90
2019-04-01T09:29:43.713Z,99.90
2019-04-01T09:32:13.344Z,99.90
2019-04-01T09:34:42.181Z,99.90
2019-04-01T09:37:11.057Z,99.90
2019-04-01T09:39:39.870Z,99.90
2019-04-01T09:42:08.718Z,99.90
2019-04-01T09:44:37.565Z,99.90
2019-04-01T09:47:06.977Z,99.90
2019-04-01T09:49:36.569Z,99.90
2019-04-01T09:52:06.152Z,99.90
2019-04-01T09:54:35.031Z,99.90
2019-04-01T09:57:16.613Z,99.90
2019-04-01T09:59:32.695Z,99.90
2019-04-01T10:02:01.541Z,99.90
2019-04-01T10:04:31.133Z,99.90
2019-04-01T10:06:59.993Z,99.90
2019-04-01T10:09:28.850Z,99.90
2019-04-01T10:11:57.709Z,99.90
2019-04-01T10:14:27.297Z,99.90
2019-04-01T10:16:56.144Z,99.90
2019-04-01T10:19:25.006Z,99.90
2019-04-01T10:21:53.850Z,99.90
2019-04-01T10:24:22.679Z,99.90
2019-04-01T10:26:52.277Z,99.90
2019-04-01T10:29:21.158Z,99.90
2019-04-01T10:31:49.958Z,99.90
2019-04-01T10:34:18.826Z,99.90
2019-04-01T10:36:47.664Z,99.90
2019-04-01T10:39:16.500Z,99.90
2019-04-01T10:41:45.408Z,99.90
2019-04-01T10:44:14.208Z,99.90
2019-04-01T10:46:43.855Z,99.90
2019-04-01T10:49:12.693Z,99.90
2019-04-01T10:51:41.521Z,99.90
2019-04-01T10:54:10.340Z,99.90
2019-04-01T10:56:39.255Z,99.90
2019-04-01T10:59:08.798Z,99.90
2019-04-01T11:01:37.726Z,99.90
2019-04-01T11:04:06.561Z,99.90
2019-04-01T11:06:36.051Z,99.90
2019-04-01T11:09:04.991Z,99.90
2019-04-01T11:11:33.747Z,99.90
2019-04-01T11:14:02.609Z,99.90
2019-04-01T11:16:31.937Z,99.90
2019-04-01T11:19:00.303Z,99.90
2019-04-01T11:21:29.167Z,99.90
2019-04-01T11:23:58.022Z,99.90
2019-04-01T11:26:26.855Z,99.90
2019-04-01T11:28:55.712Z,99.90
2019-04-01T11:31:24.597Z,99.90
2019-04-01T11:33:53.498Z,99.90
2019-04-01T11:36:22.297Z,99.90
2019-04-01T11:38:51.876Z,99.90
2019-04-01T11:41:20.737Z,99.90
2019-04-01T11:43:49.551Z,99.90
2019-04-01T11:46:18.404Z,99.90
2019-04-01T11:48:47.243Z,99.90
2019-04-01T11:51:31.187Z,99.90
2019-04-01T11:53:44.943Z,99.90
2019-04-01T11:56:13.805Z,99.90
2019-04-01T11:58:42.654Z,99.90
2019-04-01T12:01:11.504Z,99.90
2019-04-01T12:03:40.389Z,99.90
2019-04-01T12:06:09.251Z,99.90
2019-04-01T12:08:38.089Z,99.90
2019-04-01T12:11:06.931Z,99.90
2019-04-01T12:13:35.771Z,99.90
2019-04-01T12:16:04.760Z,99.90
2019-04-01T12:18:33.468Z,99.90
2019-04-01T12:21:03.060Z,99.90
2019-04-01T12:26:14.422Z,99.90
2019-04-01T12:28:30.225Z,99.90
2019-04-01T12:30:59.083Z,99.90
2019-04-01T12:33:27.921Z,99.90
2019-04-01T12:36:11.175Z,99.90
2019-04-01T12:38:29.691Z,99.90
2019-04-01T12:40:58.541Z,99.90
2019-04-01T12:43:27.386Z,99.90
2019-04-01T12:45:56.246Z,99.90
2019-04-01T12:48:25.592Z,99.90
2019-04-01T12:50:53.947Z,99.90
2019-04-01T12:53:22.774Z,99.90
2019-04-01T12:55:51.612Z,99.90
2019-04-01T12:58:24.961Z,99.90
2019-04-01T13:00:51.598Z,99.90
2019-04-01T13:03:19.987Z,99.90
2019-04-01T13:05:48.709Z,99.90
2019-04-01T13:08:17.574Z,99.90
2019-04-01T13:10:46.439Z,99.90
2019-04-01T13:13:15.728Z,99.90
2019-04-01T13:15:44.869Z,99.90
2019-04-01T13:18:13.720Z,99.90
2019-04-01T13:20:42.574Z,99.90
2019-04-01T13:23:11.447Z,99.90
2019-04-01T13:25:40.304Z,99.90
2019-04-01T13:28:09.148Z,99.90
2019-04-01T13:30:38.012Z,99.90
2019-04-01T13:33:06.863Z,99.90
2019-04-01T13:35:35.721Z,99.90
2019-04-01T13:38:04.581Z,99.90
2019-04-01T13:40:33.434Z,99.90
2019-04-01T13:43:04.646Z,98.90
2019-04-01T13:45:31.873Z,97.30
2019-04-01T13:47:59.953Z,97.50
2019-04-01T13:50:28.804Z,95.70
2019-04-01T13:52:57.633Z,94.40
2019-04-01T13:55:26.485Z,93.80
2019-04-01T13:57:55.327Z,92.60
2019-04-01T14:00:27.348Z,91.90
2019-04-01T14:02:53.744Z,90.70
2019-04-01T14:05:22.601Z,91.00
2019-04-01T14:07:51.439Z,90.60
2019-04-01T14:10:21.031Z,90.50
2019-04-01T14:12:49.874Z,89.00
2019-04-01T14:15:18.735Z,89.60
2019-04-01T14:17:47.564Z,90.30
2019-04-01T14:20:16.415Z,90.00
2019-04-01T14:22:45.273Z,87.30
2019-04-01T14:25:14.477Z,87.90
2019-04-01T14:27:42.973Z,86.90
2019-04-01T14:30:11.834Z,86.20
2019-04-01T14:32:41.408Z,87.10
2019-04-01T14:35:10.263Z,86.20
2019-04-01T14:37:39.899Z,85.10
2019-04-01T14:40:09.076Z,83.90
2019-04-01T14:42:39.527Z,84.90
2019-04-01T14:45:06.390Z,85.60
2019-04-01T14:47:35.966Z,83.70
2019-04-01T14:50:07.717Z,81.80
2019-04-01T14:52:33.680Z,81.10
2019-04-01T14:55:03.263Z,79.20
2019-04-01T14:57:32.105Z,78.60
2019-04-01T15:00:00.949Z,78.00
2019-04-01T15:02:30.541Z,79.60
2019-04-01T15:04:59.403Z,77.40
2019-04-01T15:07:28.252Z,76.60
2019-04-01T15:09:57.118Z,76.80
2019-04-01T15:12:25.970Z,76.40
2019-04-01T15:14:54.800Z,76.20
2019-04-01T15:17:23.741Z,76.60
2019-04-01T15:19:52.492Z,76.30
2019-04-01T15:22:22.718Z,76.00
2019-04-01T15:24:50.194Z,75.30
2019-04-01T15:27:22.390Z,75.80
2019-04-01T15:29:48.642Z,76.50
2019-04-01T15:32:17.483Z,76.20
2019-04-01T15:34:46.333Z,76.30
2019-04-01T15:37:15.177Z,76.40
2019-04-01T15:39:47.014Z,77.10
2019-04-01T15:42:14.118Z,77.80
2019-04-01T15:44:41.691Z,78.10
2019-04-01T15:47:10.559Z,78.80
2019-04-01T15:49:40.215Z,79.40
2019-04-01T15:52:08.231Z,79.40
2019-04-01T15:54:37.815Z,79.80
2019-04-01T15:57:06.652Z,80.10
2019-04-01T15:59:35.486Z,79.10
2019-04-01T16:02:04.360Z,79.00
2019-04-01T16:04:33.211Z,79.20
2019-04-01T16:07:02.027Z,80.10
2019-04-01T16:09:30.861Z,80.10
2019-04-01T16:12:00.452Z,79.90
2019-04-01T16:14:29.307Z,80.40
2019-04-01T16:16:58.174Z,80.10
2019-04-01T16:19:29.136Z,79.80
2019-04-01T16:21:56.633Z,80.00
2019-04-01T16:24:25.573Z,79.60
2019-04-01T16:26:54.410Z,79.70
2019-04-01T16:29:23.219Z,80.20
2019-04-01T16:31:55.206Z,80.30
2019-04-01T16:34:20.969Z,80.30
2019-04-01T16:39:11.049Z,78.90
2019-04-01T16:41:39.908Z,79.20
2019-04-01T16:44:09.486Z,79.90
2019-04-01T16:46:38.330Z,80.40
2019-04-01T16:49:07.725Z,79.80
2019-04-01T16:51:36.018Z,79.60
2019-04-01T16:54:04.857Z,80.20
2019-04-01T16:56:34.464Z,80.10
2019-04-01T16:59:03.316Z,81.00
2019-04-01T17:01:32.174Z,80.50
2019-04-01T17:04:01.025Z,80.00
2019-04-01T17:06:29.881Z,80.30
2019-04-01T17:08:58.741Z,80.80
2019-04-01T17:11:27.577Z,80.70
2019-04-01T17:13:56.430Z,81.40
2019-04-01T17:16:25.294Z,82.50
2019-04-01T17:18:57.508Z,82.30
2019-04-01T17:21:22.983Z,82.40
2019-04-01T17:23:52.563Z,83.50
2019-04-01T17:26:22.259Z,83.30
2019-04-01T17:28:50.253Z,83.30
2019-04-01T17:31:19.101Z,83.50
2019-04-01T17:33:48.060Z,84.20
2019-04-01T17:36:16.791Z,85.10
2019-04-01T17:38:48.102Z,85.80
2019-04-01T17:41:14.493Z,86.60
2019-04-01T17:43:43.336Z,87.30
2019-04-01T17:46:12.166Z,88.20
2019-04-01T17:48:41.778Z,88.90
2019-04-01T17:51:11.355Z,89.70
2019-04-01T17:53:40.197Z,89.70
2019-04-01T17:56:09.037Z,90.30
2019-04-01T17:58:37.871Z,90.50
2019-04-01T18:01:06.717Z,91.10
2019-04-01T18:03:35.567Z,91.40
2019-04-01T18:06:04.411Z,92.10
2019-04-01T18:08:34.218Z,92.10
2019-04-01T18:11:02.853Z,92.20
2019-04-01T18:13:31.692Z,93.80
2019-04-01T18:16:00.536Z,92.80
2019-04-01T18:18:29.387Z,92.80
2019-04-01T18:20:58.238Z,93.60
2019-04-01T18:23:27.079Z,93.80
2019-04-01T18:25:55.941Z,93.70
2019-04-01T18:28:24.797Z,94.30
2019-04-01T18:30:53.623Z,94.50
2019-04-01T18:33:23.220Z,95.10
2019-04-01T18:35:52.051Z,96.10
2019-04-01T18:38:20.896Z,95.30
2019-04-01T18:40:49.749Z,96.00
2019-04-01T18:43:18.591Z,96.40
2019-04-01T18:45:48.186Z,97.30
2019-04-01T18:48:17.033Z,97.40
2019-04-01T18:50:45.886Z,96.80
2019-04-01T18:53:14.754Z,96.90
2019-04-01T18:55:43.606Z,98.20
2019-04-01T18:58:12.457Z,98.40
2019-04-01T19:00:41.370Z,98.60
2019-04-01T19:03:10.659Z,99.10
2019-04-01T19:05:39.231Z,99.00
2019-04-01T19:08:07.824Z,98.70
2019-04-01T19:10:39.157Z,99.10
2019-04-01T19:13:07.578Z,99.40
2019-04-01T19:15:35.710Z,99.70
2019-04-01T19:18:03.253Z,99.90
2019-04-01T19:20:32.843Z,99.90
2019-04-01T19:23:02.233Z,99.90
2019-04-01T19:25:30.543Z,99.90
2019-04-01T19:28:00.133Z,99.90
2019-04-01T19:30:28.989Z,99.90
2019-04-01T19:32:57.850Z,99.90
2019-04-01T19:35:26.699Z,99.90
2019-04-01T19:37:56.366Z,99.90
2019-04-01T19:40:24.473Z,99.90
2019-04-01T19:42:53.274Z,99.90
2019-04-01T19:45:22.130Z,99.90
2019-04-01T19:47:51.001Z,99.90
2019-04-01T19:50:19.887Z,99.90
2019-04-01T19:52:48.701Z,99.90
2019-04-01T19:55:17.573Z,99.90
2019-04-01T19:57:46.417Z,99.90
2019-04-01T20:00:27.010Z,99.90
2019-04-01T20:02:44.095Z,99.90
2019-04-01T20:05:12.969Z,99.90
2019-04-01T20:10:11.991Z,99.90
2019-04-01T20:12:41.217Z,99.90
2019-04-01T20:15:11.826Z,99.90
2019-04-01T20:17:39.583Z,99.90
2019-04-01T20:20:08.105Z,99.90
2019-04-01T20:22:36.948Z,99.90
2019-04-01T20:25:06.531Z,99.90
2019-04-01T20:27:35.451Z,99.90
2019-04-01T20:30:05.187Z,99.90
2019-04-01T20:32:34.029Z,99.90
2019-04-01T20:35:02.861Z,99.90
2019-04-01T20:37:31.720Z,99.90
2019-04-01T20:40:00.531Z,99.90
2019-04-01T20:42:29.379Z,99.90
2019-04-01T20:44:58.223Z,99.90
2019-04-01T20:47:28.482Z,99.90
2019-04-01T20:49:56.442Z,99.90
2019-04-01T20:52:25.270Z,99.90
2019-04-01T20:54:54.164Z,99.90
2019-04-01T20:57:23.015Z,99.90
2019-04-01T20:59:51.854Z,99.90
2019-04-01T21:02:20.698Z,99.90
2019-04-01T21:04:49.530Z,99.90
2019-04-01T21:07:18.686Z,99.90
2019-04-01T21:09:47.995Z,99.90
2019-04-01T21:12:16.834Z,99.90
2019-04-01T21:14:45.664Z,99.90
2019-04-01T21:17:14.522Z,99.90
2019-04-01T21:19:44.288Z,99.90
2019-04-01T21:22:12.970Z,99.90
2019-04-01T21:24:41.834Z,99.90
2019-04-01T21:27:10.673Z,99.90
2019-04-01T21:29:40.248Z,99.90
2019-04-01T21:32:09.118Z,99.90
2019-04-01T21:34:37.975Z,99.90
2019-04-01T21:37:06.819Z,99.90
2019-04-01T21:42:05.837Z,99.90
2019-04-01T21:44:34.677Z,99.90
2019-04-01T21:47:03.555Z,99.90
2019-04-01T21:49:32.420Z,99.90
2019-04-01T21:52:02.244Z,99.90
2019-04-01T21:54:30.859Z,99.90
2019-04-01T21:56:59.697Z,99.90
2019-04-01T21:59:29.305Z,99.90
2019-04-01T22:01:58.141Z,99.90
2019-04-01T22:04:26.981Z,99.90
2019-04-01T22:06:56.551Z,99.90
2019-04-01T22:09:25.400Z,99.90
2019-04-01T22:11:54.244Z,99.90
2019-04-01T22:14:23.072Z,99.90
2019-04-01T22:16:51.985Z,99.90
2019-04-01T22:19:20.751Z,99.90
2019-04-01T22:21:49.586Z,99.90
2019-04-01T22:24:18.434Z,99.90
2019-04-01T22:26:47.276Z,99.90
2019-04-01T22:31:45.551Z,99.90
2019-04-01T22:34:14.391Z,99.90
2019-04-01T22:36:43.236Z,99.90
2019-04-01T22:39:12.066Z,99.90
2019-04-01T22:41:41.652Z,99.90
2019-04-01T22:44:09.741Z,99.90
2019-04-01T22:46:39.326Z,99.90
2019-04-01T22:49:08.158Z,99.90
2019-04-01T22:51:37.262Z,99.90
2019-04-01T22:54:05.846Z,99.90
2019-04-01T22:56:34.710Z,99.90
2019-04-01T22:59:03.546Z,99.90
2019-04-01T23:01:32.359Z,99.90
2019-04-01T23:04:01.239Z,99.90
2019-04-01T23:06:30.074Z,99.90
2019-04-01T23:08:59.931Z,99.90
2019-04-01T23:11:27.770Z,99.90
2019-04-01T23:13:56.604Z,99.90
2019-04-01T23:16:25.452Z,99.90
2019-04-01T23:18:54.297Z,99.90
2019-04-01T23:21:23.868Z,99.90
2019-04-01T23:23:52.712Z,99.90
2019-04-01T23:26:21.560Z,99.90
2019-04-01T23:28:50.400Z,99.90
2019-04-01T23:31:19.236Z,99.90
2019-04-01T23:33:48.116Z,99.90
2019-04-01T23:36:16.973Z,99.90
2019-04-01T23:38:45.805Z,99.90
2019-04-01T23:41:14.679Z,99.90
2019-04-01T23:43:43.498Z,99.90
2019-04-01T23:46:12.342Z,99.90
2019-04-01T23:48:42.131Z,99.90
2019-04-01T23:51:10.040Z,99.90
2019-04-01T23:53:38.884Z,99.90
2019-04-01T23:56:07.718Z,99.90
2019-04-01T23:58:36.556Z,99.90
